createdAt,value
2023-06-19T00:01:57.411Z,5.70
2023-06-19T00:04:24.321Z,4.70
2023-06-19T00:06:51.151Z,5.20
2023-06-19T00:09:17.860Z,4.50
2023-06-19T00:11:44.646Z,4.40
2023-06-19T00:14:11.380Z,5.30
2023-06-19T00:16:38.171Z,4.50
2023-06-19T00:19:04.931Z,4.50
2023-06-19T00:21:31.618Z,4.60
2023-06-19T00:23:58.354Z,4.20
2023-06-19T00:26:25.626Z,4.00
2023-06-19T00:28:52.832Z,3.70
2023-06-19T00:31:19.644Z,3.30
2023-06-19T00:33:49.813Z,3.50
2023-06-19T00:36:20.759Z,3.30
2023-06-19T00:38:48.634Z,3.10
2023-06-19T00:41:16.725Z,3.00
2023-06-19T00:43:43.712Z,3.40
2023-06-19T00:46:11.354Z,2.90
2023-06-19T00:48:38.643Z,2.50
2023-06-19T00:51:05.324Z,2.40
2023-06-19T00:53:33.238Z,2.80
2023-06-19T00:56:00.108Z,3.20
2023-06-19T00:58:27.431Z,2.70
2023-06-19T01:01:04.356Z,2.40
2023-06-19T01:03:36.947Z,3.10
2023-06-19T01:06:06.201Z,2.70
2023-06-19T01:08:41.933Z,2.80
2023-06-19T01:11:21.940Z,2.70
2023-06-19T01:13:59.698Z,2.90
2023-06-19T01:16:27.276Z,2.90
2023-06-19T01:18:54.596Z,2.80
2023-06-19T01:21:21.422Z,2.90
2023-06-19T01:23:48.080Z,3.10
2023-06-19T01:26:15.986Z,3.20
2023-06-19T01:28:43.721Z,3.20
2023-06-19T01:31:12.424Z,3.30
2023-06-19T01:33:40.967Z,3.60
2023-06-19T01:36:08.221Z,3.80
2023-06-19T01:38:35.523Z,4.00
2023-06-19T01:41:02.939Z,3.30
2023-06-19T01:43:31.338Z,3.70
2023-06-19T01:45:59.225Z,3.60
2023-06-19T01:48:26.048Z,3.40
2023-06-19T01:50:53.149Z,3.50
2023-06-19T01:53:19.860Z,3.60
2023-06-19T01:55:46.888Z,3.40
2023-06-19T01:58:13.734Z,3.90
2023-06-19T02:00:40.472Z,3.40
2023-06-19T02:03:07.256Z,3.50
2023-06-19T02:05:34.995Z,3.50
2023-06-19T02:08:01.841Z,2.90
2023-06-19T02:10:28.704Z,3.80
2023-06-19T02:12:56.257Z,3.20
2023-06-19T02:15:22.924Z,2.90
2023-06-19T02:17:49.978Z,3.80
2023-06-19T02:20:16.717Z,3.90
2023-06-19T02:22:43.540Z,3.90
2023-06-19T02:25:10.298Z,3.80
2023-06-19T02:27:36.979Z,3.50
2023-06-19T02:30:03.949Z,3.00
2023-06-19T02:32:30.687Z,3.90
2023-06-19T02:34:58.031Z,3.20
2023-06-19T02:37:25.867Z,2.90
2023-06-19T02:39:52.692Z,2.80
2023-06-19T02:42:19.321Z,2.60
2023-06-19T02:44:46.317Z,2.60
2023-06-19T02:47:13.052Z,2.60
2023-06-19T02:49:39.804Z,2.20
2023-06-19T02:52:06.844Z,1.70
2023-06-19T02:54:33.481Z,2.10
2023-06-19T02:57:00.542Z,1.70
2023-06-19T02:59:27.234Z,1.90
2023-06-19T03:01:53.893Z,1.90
2023-06-19T03:04:20.694Z,1.70
2023-06-19T03:06:47.389Z,1.90
2023-06-19T03:09:14.346Z,2.00
2023-06-19T03:11:41.264Z,2.00
2023-06-19T03:14:08.230Z,1.90
2023-06-19T03:16:35.420Z,1.90
2023-06-19T03:19:02.611Z,1.90
2023-06-19T03:21:29.716Z,1.70
2023-06-19T03:23:56.377Z,1.90
2023-06-19T03:26:25.366Z,1.50
2023-06-19T03:28:52.418Z,1.80
2023-06-19T03:31:19.390Z,1.80
2023-06-19T03:33:46.176Z,2.00
2023-06-19T03:36:13.065Z,1.80
2023-06-19T03:38:49.904Z,2.00
2023-06-19T03:41:19.344Z,2.20
2023-06-19T03:43:47.015Z,2.20
2023-06-19T03:46:13.904Z,2.30
2023-06-19T03:48:40.707Z,2.70
2023-06-19T03:51:07.479Z,2.40
2023-06-19T03:53:34.305Z,2.40
2023-06-19T03:56:00.938Z,2.50
2023-06-19T03:58:27.679Z,2.40
2023-06-19T04:00:54.401Z,3.00
2023-06-19T04:03:21.327Z,2.20
2023-06-19T04:05:48.086Z,2.90
2023-06-19T04:08:14.840Z,2.30
2023-06-19T04:10:44.088Z,2.80
2023-06-19T04:13:10.872Z,2.60
2023-06-19T04:15:37.982Z,2.50
2023-06-19T04:18:04.963Z,2.90
2023-06-19T04:20:31.662Z,2.70
2023-06-19T04:22:58.461Z,3.20
2023-06-19T04:25:25.290Z,3.60
2023-06-19T04:27:52.319Z,2.80
2023-06-19T04:30:21.654Z,2.90
2023-06-19T04:32:48.632Z,2.60
2023-06-19T04:35:15.380Z,3.50
2023-06-19T04:37:42.139Z,2.60
2023-06-19T04:40:09.424Z,2.80
2023-06-19T04:42:36.106Z,2.90
2023-06-19T04:45:02.912Z,2.70
2023-06-19T04:47:39.669Z,2.90
2023-06-19T04:50:16.742Z,3.40
2023-06-19T04:52:43.411Z,3.10
2023-06-19T04:55:10.666Z,3.50
2023-06-19T04:57:37.735Z,3.80
2023-06-19T05:00:06.997Z,3.60
2023-06-19T05:02:34.235Z,3.10
2023-06-19T05:05:03.384Z,3.40
2023-06-19T05:07:33.393Z,3.30
2023-06-19T05:10:00.192Z,3.40
2023-06-19T05:12:26.963Z,3.10
2023-06-19T05:14:53.688Z,3.60
2023-06-19T05:17:20.660Z,3.30
2023-06-19T05:19:47.761Z,3.00
2023-06-19T05:22:14.703Z,3.60
2023-06-19T05:24:41.594Z,3.30
2023-06-19T05:27:08.408Z,3.30
2023-06-19T05:29:35.616Z,3.40
2023-06-19T05:32:02.384Z,3.60
2023-06-19T05:34:29.310Z,4.40
2023-06-19T05:36:56.080Z,3.80
2023-06-19T05:39:22.836Z,3.50
2023-06-19T05:41:49.532Z,4.00
2023-06-19T05:44:17.343Z,3.90
2023-06-19T05:46:44.109Z,3.90
2023-06-19T05:49:10.928Z,4.60
2023-06-19T05:51:37.625Z,3.70
2023-06-19T05:54:04.809Z,4.10
2023-06-19T05:56:33.566Z,4.20
2023-06-19T05:59:00.723Z,4.90
2023-06-19T06:01:28.428Z,4.80
2023-06-19T06:03:55.555Z,4.30
2023-06-19T06:06:23.624Z,5.00
2023-06-19T06:08:51.728Z,4.80
2023-06-19T06:11:18.813Z,6.20
2023-06-19T06:13:45.431Z,6.20
2023-06-19T06:16:12.089Z,5.20
2023-06-19T06:18:38.794Z,5.40
2023-06-19T06:21:05.616Z,5.20
2023-06-19T06:23:32.355Z,5.70
2023-06-19T06:26:02.858Z,5.80
2023-06-19T06:28:29.671Z,6.70
2023-06-19T06:30:56.488Z,6.10
2023-06-19T06:33:23.614Z,7.00
2023-06-19T06:35:50.590Z,8.00
2023-06-19T06:38:17.247Z,8.60
2023-06-19T06:40:43.907Z,8.10
2023-06-19T06:43:10.590Z,8.00
2023-06-19T06:45:42.709Z,8.20
2023-06-19T06:48:09.474Z,7.90
2023-06-19T06:50:36.296Z,8.40
2023-06-19T06:53:03.471Z,8.10
2023-06-19T06:55:30.311Z,7.60
2023-06-19T06:57:57.044Z,7.10
2023-06-19T07:00:23.981Z,7.00
2023-06-19T07:02:51.890Z,6.20
2023-06-19T07:05:18.963Z,6.60
2023-06-19T07:07:45.744Z,7.10
2023-06-19T07:10:13.110Z,6.40
2023-06-19T07:12:46.163Z,7.30
2023-06-19T07:15:12.966Z,6.20
2023-06-19T07:17:39.854Z,6.40
2023-06-19T07:20:07.115Z,6.50
2023-06-19T07:22:33.836Z,6.90
2023-06-19T07:25:00.628Z,6.30
2023-06-19T07:27:28.201Z,6.70
2023-06-19T07:29:54.844Z,7.00
2023-06-19T07:32:21.694Z,6.70
2023-06-19T07:34:48.418Z,7.00
2023-06-19T07:37:18.233Z,7.00
2023-06-19T07:39:48.675Z,6.40
2023-06-19T07:42:15.649Z,6.80
2023-06-19T07:44:42.508Z,6.80
2023-06-19T07:47:09.443Z,6.60
2023-06-19T07:49:36.322Z,6.70
2023-06-19T07:52:03.809Z,7.10
2023-06-19T07:54:30.790Z,6.90
2023-06-19T07:56:57.431Z,6.90
2023-06-19T07:59:24.080Z,7.30
2023-06-19T08:01:50.830Z,7.00
2023-06-19T08:04:17.615Z,7.60
2023-06-19T08:06:44.352Z,7.70
2023-06-19T08:09:11.067Z,7.60
2023-06-19T08:11:37.924Z,8.00
2023-06-19T08:14:04.618Z,8.20
2023-06-19T08:16:31.404Z,7.80
2023-06-19T08:18:58.047Z,8.40
2023-06-19T08:21:25.016Z,8.10
2023-06-19T08:23:51.658Z,7.80
2023-06-19T08:26:18.762Z,8.60
2023-06-19T08:28:45.569Z,6.40
2023-06-19T08:31:12.305Z,8.20
2023-06-19T08:33:38.986Z,7.60
2023-06-19T08:36:05.779Z,8.60
2023-06-19T08:38:32.479Z,7.40
2023-06-19T08:40:59.783Z,7.70
2023-06-19T08:43:26.428Z,7.70
2023-06-19T08:46:19.454Z,7.40
2023-06-19T08:48:49.530Z,6.40
2023-06-19T08:51:16.693Z,7.30
2023-06-19T08:53:47.874Z,6.90
2023-06-19T08:56:14.639Z,6.20
2023-06-19T08:58:41.737Z,6.90
2023-06-19T09:01:08.585Z,6.40
2023-06-19T09:03:35.321Z,6.20
2023-06-19T09:06:08.579Z,6.70
2023-06-19T09:11:03.631Z,7.10
2023-06-19T09:13:31.200Z,5.90
2023-06-19T09:16:08.765Z,6.10
2023-06-19T09:18:45.886Z,5.90
2023-06-19T09:21:18.779Z,6.30
2023-06-19T09:23:46.338Z,5.40
2023-06-19T09:26:18.206Z,5.80
2023-06-19T09:28:45.003Z,6.50
2023-06-19T09:31:12.984Z,5.80
2023-06-19T09:33:40.179Z,6.20
2023-06-19T09:36:07.441Z,6.20
2023-06-19T09:38:36.230Z,6.10
2023-06-19T09:41:04.050Z,5.90
2023-06-19T09:43:38.104Z,6.60
2023-06-19T09:46:05.720Z,6.50
2023-06-19T09:48:35.353Z,6.40
2023-06-19T09:51:02.295Z,6.40
2023-06-19T09:53:29.284Z,7.00
2023-06-19T09:55:56.643Z,6.10
2023-06-19T09:58:23.738Z,6.60
2023-06-19T10:00:51.349Z,7.00
2023-06-19T10:03:18.190Z,7.50
2023-06-19T10:05:45.213Z,8.00
2023-06-19T10:08:12.011Z,7.60
2023-06-19T10:10:46.842Z,8.50
2023-06-19T10:13:14.688Z,8.90
2023-06-19T10:15:44.962Z,9.80
2023-06-19T10:18:16.837Z,9.90
2023-06-19T10:20:46.741Z,9.60
2023-06-19T10:23:19.345Z,10.10
2023-06-19T10:25:55.988Z,9.90
2023-06-19T10:28:23.688Z,11.00
2023-06-19T10:31:00.200Z,11.70
2023-06-19T10:33:28.015Z,11.20
2023-06-19T10:35:54.892Z,9.90
2023-06-19T10:38:21.972Z,10.20
2023-06-19T10:40:48.756Z,10.20
2023-06-19T10:43:25.801Z,10.80
2023-06-19T10:45:52.617Z,11.80
2023-06-19T10:48:20.325Z,10.50
2023-06-19T10:50:47.711Z,10.50
2023-06-19T10:53:32.424Z,8.70
2023-06-19T10:55:59.772Z,7.70
2023-06-19T10:58:26.993Z,8.80
2023-06-19T11:00:53.683Z,8.40
2023-06-19T11:03:21.217Z,8.00
2023-06-19T11:05:48.729Z,8.70
2023-06-19T11:08:22.832Z,9.10
2023-06-19T11:10:50.079Z,9.10
2023-06-19T11:13:17.994Z,8.90
2023-06-19T11:15:44.983Z,7.90
2023-06-19T11:18:12.317Z,6.90
2023-06-19T11:20:50.840Z,5.90
2023-06-19T11:23:18.029Z,6.90
2023-06-19T11:25:44.771Z,7.10
2023-06-19T11:28:12.223Z,6.90
2023-06-19T11:30:38.936Z,7.10
2023-06-19T11:33:16.270Z,7.40
2023-06-19T11:35:47.784Z,7.50
2023-06-19T11:38:18.830Z,7.50
2023-06-19T11:40:46.413Z,6.50
2023-06-19T11:43:13.063Z,6.70
2023-06-19T11:45:47.217Z,6.40
2023-06-19T11:48:14.409Z,6.40
2023-06-19T11:50:41.745Z,5.80
2023-06-19T11:53:08.731Z,5.90
2023-06-19T11:55:37.033Z,5.20
2023-06-19T11:58:05.448Z,5.70
2023-06-19T12:00:32.405Z,5.40
2023-06-19T12:02:59.335Z,4.70
2023-06-19T12:05:26.192Z,4.10
2023-06-19T12:07:52.876Z,4.00
2023-06-19T12:10:19.565Z,4.10
2023-06-19T12:12:46.251Z,3.20
2023-06-19T12:15:13.277Z,4.60
2023-06-19T12:17:40.031Z,3.50
2023-06-19T12:20:07.532Z,2.90
2023-06-19T12:22:35.009Z,4.20
2023-06-19T12:25:01.912Z,3.70
2023-06-19T12:27:28.650Z,3.40
2023-06-19T12:29:55.606Z,3.20
2023-06-19T12:32:22.448Z,3.10
2023-06-19T12:34:49.075Z,3.10
2023-06-19T12:37:16.142Z,2.50
2023-06-19T12:39:42.797Z,2.60
2023-06-19T12:42:09.896Z,2.90
2023-06-19T12:44:36.531Z,2.30
2023-06-19T12:47:05.338Z,2.10
2023-06-19T12:49:32.281Z,2.50
2023-06-19T12:51:59.044Z,1.80
2023-06-19T12:54:26.307Z,1.60
2023-06-19T12:56:53.014Z,1.80
2023-06-19T12:59:19.872Z,1.90
2023-06-19T13:01:46.580Z,1.70
2023-06-19T13:04:13.693Z,1.80
2023-06-19T13:06:40.452Z,1.90
2023-06-19T13:09:07.710Z,2.30
2023-06-19T13:11:35.013Z,2.50
2023-06-19T13:14:02.025Z,2.20
2023-06-19T13:16:44.744Z,2.10
2023-06-19T13:19:13.575Z,2.80
2023-06-19T13:21:40.961Z,2.60
2023-06-19T13:24:07.666Z,2.60
2023-06-19T13:26:34.419Z,2.30
2023-06-19T13:29:01.432Z,2.70
2023-06-19T13:31:28.491Z,2.80
2023-06-19T13:33:55.314Z,2.80
2023-06-19T13:36:23.765Z,2.60
2023-06-19T13:38:50.350Z,2.60
2023-06-19T13:41:17.057Z,2.90
2023-06-19T13:43:45.889Z,3.40
2023-06-19T13:46:12.689Z,2.70
2023-06-19T13:48:39.446Z,2.80
2023-06-19T13:51:06.144Z,2.60
2023-06-19T13:53:33.707Z,2.50
2023-06-19T13:56:00.345Z,2.60
2023-06-19T13:58:26.950Z,3.10
2023-06-19T14:00:53.733Z,2.50
2023-06-19T14:03:20.686Z,3.20
2023-06-19T14:05:47.562Z,3.00
2023-06-19T14:08:14.407Z,3.00
2023-06-19T14:10:41.040Z,3.00
2023-06-19T14:13:07.776Z,2.80
2023-06-19T14:15:34.428Z,2.40
2023-06-19T14:18:01.224Z,3.10
2023-06-19T14:20:28.050Z,2.90
2023-06-19T14:22:54.761Z,2.90
2023-06-19T14:25:21.553Z,2.90
2023-06-19T14:27:48.210Z,3.10
2023-06-19T14:30:14.917Z,3.50
2023-06-19T14:32:41.615Z,3.00
2023-06-19T14:35:08.323Z,3.30
2023-06-19T14:37:35.256Z,3.60
2023-06-19T14:40:02.058Z,3.40
2023-06-19T14:42:28.764Z,3.40
2023-06-19T14:44:55.667Z,4.00
2023-06-19T14:47:22.520Z,3.90
2023-06-19T14:49:49.238Z,3.80
2023-06-19T14:52:16.504Z,3.80
2023-06-19T14:54:43.271Z,3.70
2023-06-19T14:57:10.041Z,3.90
2023-06-19T14:59:36.705Z,3.70
2023-06-19T15:02:03.625Z,4.30
2023-06-19T15:04:30.429Z,3.90
2023-06-19T15:06:57.174Z,3.50
2023-06-19T15:09:23.849Z,3.60
2023-06-19T15:11:50.671Z,3.50
2023-06-19T15:14:17.827Z,4.00
2023-06-19T15:16:44.628Z,3.10
2023-06-19T15:19:11.301Z,3.60
2023-06-19T15:21:38.035Z,3.50
2023-06-19T15:24:04.878Z,3.80
2023-06-19T15:26:31.587Z,3.50
2023-06-19T15:28:58.330Z,2.90
2023-06-19T15:31:26.485Z,2.90
2023-06-19T15:33:53.293Z,3.50
2023-06-19T15:36:20.062Z,3.40
2023-06-19T15:38:46.792Z,3.30
2023-06-19T15:41:13.729Z,3.60
2023-06-19T15:43:42.193Z,3.40
2023-06-19T15:46:09.062Z,3.80
2023-06-19T15:48:35.895Z,3.40
2023-06-19T15:51:02.610Z,3.30
2023-06-19T15:53:29.376Z,2.80
2023-06-19T15:55:56.098Z,3.40
2023-06-19T15:58:22.861Z,3.20
2023-06-19T16:00:53.164Z,2.90
2023-06-19T16:03:20.755Z,2.80
2023-06-19T16:06:05.577Z,2.70
2023-06-19T16:08:34.407Z,2.70
2023-06-19T16:11:01.091Z,2.50
2023-06-19T16:13:27.726Z,2.20
2023-06-19T16:15:54.447Z,2.50
2023-06-19T16:18:21.202Z,2.60
2023-06-19T16:20:47.884Z,2.10
2023-06-19T16:23:14.630Z,2.10
2023-06-19T16:25:41.430Z,2.40
2023-06-19T16:28:08.092Z,2.50
2023-06-19T16:30:34.937Z,2.60
2023-06-19T16:33:01.647Z,2.40
2023-06-19T16:35:28.284Z,2.40
2023-06-19T16:37:55.142Z,3.00
2023-06-19T16:40:24.452Z,2.50
2023-06-19T16:42:51.856Z,2.60
2023-06-19T16:45:18.547Z,2.40
2023-06-19T16:47:45.237Z,2.40
2023-06-19T16:50:11.875Z,2.60
2023-06-19T16:52:38.471Z,2.60
2023-06-19T16:55:05.301Z,3.00
2023-06-19T16:57:33.320Z,2.20
2023-06-19T17:00:00.612Z,2.40
2023-06-19T17:02:27.442Z,3.10
2023-06-19T17:04:54.072Z,2.90
2023-06-19T17:07:20.722Z,3.00
2023-06-19T17:09:47.445Z,3.20
2023-06-19T17:12:14.470Z,2.80
2023-06-19T17:14:42.204Z,3.10
2023-06-19T17:17:09.272Z,3.10
2023-06-19T17:19:36.064Z,3.20
2023-06-19T17:22:03.017Z,3.00
2023-06-19T17:24:29.773Z,3.10
2023-06-19T17:26:57.592Z,2.50
2023-06-19T17:29:27.227Z,2.90
2023-06-19T17:31:54.455Z,3.30
2023-06-19T17:34:21.385Z,3.10
2023-06-19T17:36:48.122Z,2.90
2023-06-19T17:39:15.005Z,2.70
2023-06-19T17:41:42.025Z,3.00
2023-06-19T17:44:08.820Z,2.80
2023-06-19T17:46:36.970Z,2.60
2023-06-19T17:49:03.763Z,3.10
2023-06-19T17:51:30.616Z,2.70
2023-06-19T17:53:57.495Z,2.60
2023-06-19T17:56:24.205Z,2.80
2023-06-19T17:58:50.923Z,2.70
2023-06-19T18:01:17.705Z,2.80
2023-06-19T18:03:44.399Z,2.30
2023-06-19T18:06:11.126Z,2.80
2023-06-19T18:08:37.763Z,2.70
2023-06-19T18:11:04.359Z,2.40
2023-06-19T18:13:30.981Z,2.70
2023-06-19T18:16:11.296Z,2.70
2023-06-19T18:18:39.069Z,3.10
2023-06-19T18:21:05.671Z,2.70
2023-06-19T18:23:32.358Z,2.40
2023-06-19T18:25:59.132Z,2.50
2023-06-19T18:28:25.763Z,2.70
2023-06-19T18:30:52.405Z,3.10
2023-06-19T18:33:19.148Z,2.30
2023-06-19T18:35:46.026Z,2.40
2023-06-19T18:38:13.624Z,2.10
2023-06-19T18:40:41.815Z,2.60
2023-06-19T18:43:08.530Z,2.70
2023-06-19T18:45:35.178Z,2.60
2023-06-19T18:48:01.983Z,3.00
2023-06-19T18:50:28.703Z,2.60
2023-06-19T18:52:55.379Z,3.60
2023-06-19T18:55:22.265Z,4.30
2023-06-19T18:57:51.864Z,4.30
2023-06-19T19:00:18.944Z,3.40
2023-06-19T19:02:45.889Z,3.90
2023-06-19T19:05:12.905Z,3.40
2023-06-19T19:07:39.671Z,3.40
2023-06-19T19:10:06.713Z,3.00
2023-06-19T19:12:33.400Z,3.10
2023-06-19T19:15:00.030Z,3.40
2023-06-19T19:17:26.813Z,3.50
2023-06-19T19:19:53.448Z,3.40
2023-06-19T19:22:20.103Z,3.40
2023-06-19T19:24:46.813Z,3.50
2023-06-19T19:27:13.589Z,3.80
2023-06-19T19:29:40.213Z,3.40
2023-06-19T19:32:07.126Z,3.60
2023-06-19T19:34:34.528Z,3.30
2023-06-19T19:37:01.187Z,4.00
2023-06-19T19:39:27.957Z,3.80
2023-06-19T19:41:54.556Z,4.00
2023-06-19T19:44:21.142Z,3.60
2023-06-19T19:46:47.760Z,3.70
2023-06-19T19:49:14.344Z,3.90
2023-06-19T19:51:40.940Z,3.90
2023-06-19T19:54:07.630Z,3.50
2023-06-19T19:56:34.297Z,3.40
2023-06-19T19:59:00.908Z,4.20
2023-06-19T20:01:27.767Z,3.90
2023-06-19T20:03:54.643Z,3.80
2023-06-19T20:06:21.415Z,4.50
2023-06-19T20:08:48.119Z,3.80
2023-06-19T20:11:14.727Z,5.00
2023-06-19T20:13:41.425Z,4.30
2023-06-19T20:16:09.566Z,4.10
2023-06-19T20:18:36.687Z,4.50
2023-06-19T20:21:03.434Z,5.10
2023-06-19T20:23:30.316Z,4.60
2023-06-19T20:25:57.019Z,5.30
2023-06-19T20:28:23.929Z,5.10
2023-06-19T20:30:50.719Z,5.30
2023-06-19T20:33:17.513Z,5.00
2023-06-19T20:35:47.269Z,5.00
2023-06-19T20:38:14.114Z,4.80
2023-06-19T20:40:40.835Z,4.80
2023-06-19T20:43:08.294Z,5.30
2023-06-19T20:45:34.930Z,5.00
2023-06-19T20:48:02.943Z,5.10
2023-06-19T20:50:29.819Z,4.80
2023-06-19T20:52:56.594Z,5.10
2023-06-19T20:55:23.245Z,5.50
2023-06-19T20:57:50.176Z,5.20
2023-06-19T21:00:17.459Z,4.80
2023-06-19T21:02:44.568Z,4.80
2023-06-19T21:05:15.954Z,5.00
2023-06-19T21:07:43.328Z,5.00
2023-06-19T21:10:10.122Z,4.90
2023-06-19T21:12:36.928Z,5.90
2023-06-19T21:15:04.229Z,5.70
2023-06-19T21:17:30.987Z,5.80
2023-06-19T21:19:57.780Z,5.70
2023-06-19T21:22:24.481Z,5.60
2023-06-19T21:24:51.132Z,4.80
2023-06-19T21:27:17.805Z,5.70
2023-06-19T21:29:45.087Z,5.90
2023-06-19T21:32:11.756Z,5.40
2023-06-19T21:34:38.426Z,4.60
2023-06-19T21:37:05.132Z,5.60
2023-06-19T21:39:31.869Z,5.50
2023-06-19T21:41:58.540Z,5.30
2023-06-19T21:44:25.227Z,4.70
2023-06-19T21:46:51.954Z,4.90
2023-06-19T21:49:18.768Z,4.90
2023-06-19T21:51:45.513Z,4.80
2023-06-19T21:54:12.199Z,5.40
2023-06-19T21:56:38.926Z,4.90
2023-06-19T21:59:05.641Z,4.70
2023-06-19T22:01:32.265Z,4.80
2023-06-19T22:03:59.031Z,4.60
2023-06-19T22:06:25.776Z,4.90
2023-06-19T22:08:52.384Z,4.40
2023-06-19T22:11:19.162Z,4.50
2023-06-19T22:13:45.821Z,4.10
2023-06-19T22:16:12.647Z,4.40
2023-06-19T22:18:39.372Z,4.80
2023-06-19T22:21:06.148Z,5.30
2023-06-19T22:23:33.088Z,4.60
2023-06-19T22:26:00.170Z,5.50
2023-06-19T22:28:26.848Z,5.30
2023-06-19T22:30:53.492Z,5.20
2023-06-19T22:33:20.170Z,4.20
2023-06-19T22:35:47.451Z,4.70
2023-06-19T22:38:14.761Z,4.70
2023-06-19T22:40:41.416Z,5.10
2023-06-19T22:43:08.827Z,4.50
2023-06-19T22:45:35.505Z,4.50
2023-06-19T22:48:03.299Z,4.80
2023-06-19T22:50:30.474Z,5.20
2023-06-19T22:52:57.221Z,4.70
2023-06-19T22:55:24.094Z,5.20
2023-06-19T22:57:51.050Z,5.40
2023-06-19T23:00:17.693Z,4.90
2023-06-19T23:02:45.260Z,5.40
2023-06-19T23:05:12.473Z,5.00
2023-06-19T23:07:39.673Z,5.40
2023-06-19T23:10:08.286Z,4.70
2023-06-19T23:12:35.164Z,4.90
2023-06-19T23:15:02.217Z,5.60
2023-06-19T23:17:29.061Z,4.80
2023-06-19T23:19:58.580Z,5.00
2023-06-19T23:22:25.573Z,4.50
2023-06-19T23:24:52.860Z,4.60
2023-06-19T23:27:19.799Z,4.90
2023-06-19T23:29:46.620Z,5.40
2023-06-19T23:32:13.233Z,6.20
2023-06-19T23:34:39.927Z,6.00
2023-06-19T23:37:06.636Z,5.60
2023-06-19T23:39:33.294Z,6.20
2023-06-19T23:42:03.410Z,5.70
2023-06-19T23:44:30.452Z,5.40
2023-06-19T23:46:57.137Z,5.70
2023-06-19T23:49:23.772Z,6.20
2023-06-19T23:51:50.468Z,6.10
2023-06-19T23:54:17.360Z,6.30
2023-06-19T23:56:44.097Z,6.20
2023-06-19T23:59:10.797Z,6.50
